Alamo, North Dakota
Current Conditions -  °F | °C
As of 10:15 PM on Tuesday 27 Jan 2015 (Local Time) from KD50 Reporting Station
Clear Clear  
Wind Chill: 30°   Ceiling: Unl
Heat Index: 30°   Visibility: 10mi
Dew Point: 30°   Wind: 3mph
Humidity: 100%   Direction: 230°SW
Pressure: 29.78"   Gusts: NA
Location:  48.58°N, 103.47°W
Report Text: KD50 280415Z AUTO 23003KT 10SM CLR M01/M01 A2978 RMK AO2
Loading
Personal Weather Stations






























Interactive Weather Map New forecast layout! Learn more

10-Day Weather Forecast

Advertisements
Track Severe Weather on mobile